Terminal Aerodrome Forecast
Issued by NWS Charleston, WV

Home | Current Version | Previous Version | Text Only | Print | Product List | Glossary On
Versions: 1 2 3 4 5 6 7 8 9 10 11 12 13 14 15 16 17 18 19 20 21 22 23 24 25
151
FTUS41 KRLX 051743
TAFEKN
TAF
KEKN 051743Z 0518/0618 28007KT P6SM BKN025
     FM051900 29006KT P6SM BKN035
     FM052100 VRB03KT P6SM SCT035
     FM061100 13010KT P6SM -FZRA OVC120
     FM061200 12011KT 3SM -FZRA OVC045
     FM061400 12011KT 2SM -RA OVC025=

USA.gov is the U.S. government's official web portal to all federal, state and local government web resources and services.